ADDS TAF Data INFO
IDs: Format: Raw Decoded Include METARs

Data at: 2014 UTC 22 Apr 2018

KDMA 221958Z AUTO 22003KT 10SM SCT130 BKN200 30/M10 A2994 RMK AO2 SLP102 T03001096 $

TAF KDMA 221401Z 2214/2320 15006KT 9999 FEW250 QNH2995INS
  BECMG 2217/2218 29009KT 9999 FEW150 SCT250 QNH2988INS
  BECMG 2305/2306 16006KT 9999 FEW250 QNH2999INS
  BECMG 2309/2310 VRB06KT 9999 SKC QNH3001INS TX30/2222Z TN16/2214Z